sim
Sign-in with your pilot id or email,
or register
Callsign
Passwort

Schedule Details

Flight Number: OEO5129
Departure: Adnan Menderes International Airport (LTBJ) at 11:15
Arrival: Bremen Airport (EDDW) at 14:45

Weather Information
Getting current METAR information for LTBJ 112020Z VRB02KT CAVOK 25/21 Q1009 BECMG 36012KT RMK RWY16 22004KT 160V290
Getting current METAR information for EDDW 112020Z 23001KT 9999 FEW028 13/12 Q1025 NOSIG

Schedule Frequency

Route Map